Time;durP1;ratioP1;P1;durP2;ratioP2;P2;SDS_P1;SDS_P2;PMS_P1;PMS_P2;Temp;Humidity;BMP_temperature;BMP_pressure;BME280_temperature;BME280_humidity;BME280_pressure;Samples;Min_cycle;Max_cycle;Signal;HPM_P1;HPM_P2
2024/01/18 00:01:25;;;;;;;;;38.00;32.00;;;;;;;;5061602;28;45899;-76
2024/01/18 00:03:53;;;;;;;;;30.00;28.75;;;;;;;;5043687;28;45237;-77
2024/01/18 00:06:19;;;;;;;;;36.50;36.00;;;;;;;;5043675;28;45372;-77
2024/01/18 00:08:46;;;;;;;;;42.00;36.75;;;;;;;;5061562;28;45307;-77
2024/01/18 00:11:12;;;;;;;;;36.75;30.25;;;;;;;;5043413;28;45696;-76
2024/01/18 00:13:37;;;;;;;;;33.25;32.00;;;;;;;;5043320;28;45496;-76
2024/01/18 00:16:02;;;;;;;;;32.50;29.25;;;;;;;;5043666;28;45295;-78
2024/01/18 00:18:27;;;;;;;;;33.00;30.75;;;;;;;;5061409;28;45307;-77
2024/01/18 00:20:53;;;;;;;;;33.50;31.50;;;;;;;;5043124;28;47269;-77
2024/01/18 00:23:18;;;;;;;;;28.75;26.50;;;;;;;;5043290;28;45252;-77
2024/01/18 00:25:43;;;;;;;;;25.75;25.75;;;;;;;;5043395;28;45256;-77
2024/01/18 00:28:08;;;;;;;;;34.75;31.25;;;;;;;;5061491;28;45162;-78
2024/01/18 00:30:33;;;;;;;;;28.25;27.25;;;;;;;;5060149;28;45413;-78
2024/01/18 00:32:59;;;;;;;;;34.75;29.50;;;;;;;;5061194;28;45373;-77
2024/01/18 00:35:24;;;;;;;;;35.75;31.00;;;;;;;;5061345;28;45287;-77
2024/01/18 00:37:49;;;;;;;;;32.00;29.75;;;;;;;;5043131;28;45470;-77
2024/01/18 00:40:14;;;;;;;;;29.25;26.50;;;;;;;;5061237;28;45323;-77
2024/01/18 00:42:40;;;;;;;;;26.50;25.50;;;;;;;;5061221;28;45216;-77
2024/01/18 00:45:05;;;;;;;;;26.25;26.25;;;;;;;;5042930;28;45347;-77
2024/01/18 00:47:30;;;;;;;;;29.25;29.25;;;;;;;;5042926;28;46358;-77
2024/01/18 00:49:55;;;;;;;;;23.50;23.50;;;;;;;;5060893;28;46345;-77
2024/01/18 00:52:23;;;;;;;;;25.00;22.25;;;;;;;;5061042;28;45364;-77
2024/01/18 00:54:49;;;;;;;;;23.75;22.50;;;;;;;;5060793;28;45296;-77
2024/01/18 00:57:14;;;;;;;;;28.25;26.50;;;;;;;;5042743;28;47362;-78
2024/01/18 00:59:39;;;;;;;;;23.00;23.00;;;;;;;;5061206;28;45492;-76
2024/01/18 01:02:05;;;;;;;;;27.75;23.25;;;;;;;;5059731;28;45442;-77
2024/01/18 01:04:31;;;;;;;;;29.50;26.00;;;;;;;;5042393;28;45372;-77
2024/01/18 01:06:56;;;;;;;;;23.00;20.00;;;;;;;;5042321;28;46010;-77
2024/01/18 01:09:21;;;;;;;;;20.00;18.25;;;;;;;;5042215;28;48126;-77
2024/01/18 01:11:47;;;;;;;;;24.00;21.50;;;;;;;;5042287;28;45291;-77
2024/01/18 01:14:12;;;;;;;;;22.75;22.25;;;;;;;;5042512;28;45353;-78
2024/01/18 01:16:37;;;;;;;;;29.00;27.75;;;;;;;;5060478;28;45633;-77
2024/01/18 01:19:02;;;;;;;;;22.50;21.00;;;;;;;;5042316;28;47725;-77
2024/01/18 01:21:28;;;;;;;;;27.50;26.00;;;;;;;;5060332;28;45674;-77
2024/01/18 01:23:54;;;;;;;;;22.00;22.00;;;;;;;;5042572;28;45693;-77
2024/01/18 01:26:19;;;;;;;;;24.50;22.50;;;;;;;;5060430;28;45573;-77
2024/01/18 01:28:46;;;;;;;;;26.00;22.50;;;;;;;;5060495;28;45597;-77
2024/01/18 01:31:12;;;;;;;;;27.00;22.50;;;;;;;;5041663;28;45305;-77
2024/01/18 01:33:41;;;;;;;;;27.00;27.00;;;;;;;;5042018;28;45327;-77
2024/01/18 01:36:07;;;;;;;;;22.00;19.00;;;;;;;;5059192;28;45275;-78
2024/01/18 01:38:32;;;;;;;;;24.75;21.75;;;;;;;;5059442;28;46480;-77
2024/01/18 01:40:57;;;;;;;;;26.50;24.25;;;;;;;;5041225;28;45535;-77
2024/01/18 01:43:25;;;;;;;;;22.75;18.75;;;;;;;;5042515;28;45334;-76
2024/01/18 01:46:13;;;;;;;;;24.75;19.00;;;;;;;;5042012;28;47525;-78
2024/01/18 01:48:39;;;;;;;;;25.00;23.50;;;;;;;;5059869;28;47492;-77
2024/01/18 01:51:04;;;;;;;;;26.25;25.50;;;;;;;;5041956;28;45273;-77
2024/01/18 01:53:33;;;;;;;;;24.50;23.50;;;;;;;;5041870;28;45368;-77
2024/01/18 01:55:58;;;;;;;;;20.50;19.25;;;;;;;;5060157;28;45383;-78
2024/01/18 01:58:27;;;;;;;;;23.50;21.75;;;;;;;;5041639;28;46931;-77
2024/01/18 02:00:55;;;;;;;;;33.00;31.00;;;;;;;;5041844;28;45311;-77
2024/01/18 02:03:20;;;;;;;;;20.25;16.50;;;;;;;;5059897;28;45367;-78
2024/01/18 02:05:45;;;;;;;;;26.50;25.50;;;;;;;;5059871;28;45625;-79
2024/01/18 02:08:11;;;;;;;;;24.25;21.75;;;;;;;;5059809;28;46349;-78
2024/01/18 02:10:39;;;;;;;;;18.25;18.25;;;;;;;;5041761;28;45324;-77
2024/01/18 02:13:06;;;;;;;;;21.25;18.50;;;;;;;;5041793;28;45384;-77
2024/01/18 02:15:33;;;;;;;;;23.00;21.75;;;;;;;;5059748;28;45345;-78
2024/01/18 02:17:58;;;;;;;;;25.25;24.00;;;;;;;;5059416;28;45336;-78
2024/01/18 02:20:24;;;;;;;;;25.00;21.75;;;;;;;;5041369;28;45290;-77
2024/01/18 02:22:49;;;;;;;;;20.00;17.50;;;;;;;;5041642;28;45381;-77
2024/01/18 02:25:19;;;;;;;;;26.25;23.25;;;;;;;;5041502;28;45896;-77
2024/01/18 02:27:44;;;;;;;;;21.50;21.25;;;;;;;;5041390;28;45950;-77
2024/01/18 02:30:09;;;;;;;;;24.75;21.25;;;;;;;;5059681;28;45627;-78
2024/01/18 02:32:35;;;;;;;;;22.25;18.75;;;;;;;;5041373;28;45475;-79
2024/01/18 02:35:00;;;;;;;;;22.00;20.50;;;;;;;;5041179;28;45750;-78
2024/01/18 02:37:25;;;;;;;;;19.25;19.25;;;;;;;;5059477;28;45343;-77
2024/01/18 02:39:52;;;;;;;;;24.75;23.00;;;;;;;;5059581;28;45320;-79
2024/01/18 02:42:17;;;;;;;;;19.50;19.25;;;;;;;;5059547;28;45287;-78
2024/01/18 02:44:44;;;;;;;;;23.00;23.00;;;;;;;;5040938;28;46127;-78
2024/01/18 02:47:10;;;;;;;;;25.75;18.75;;;;;;;;5059225;28;46166;-78
2024/01/18 02:49:35;;;;;;;;;21.50;17.50;;;;;;;;5059207;28;45192;-78
2024/01/18 02:52:01;;;;;;;;;27.50;24.50;;;;;;;;5041320;28;45285;-78
2024/01/18 02:54:26;;;;;;;;;21.00;20.25;;;;;;;;5043657;28;46245;-77
2024/01/18 02:56:54;;;;;;;;;15.00;14.50;;;;;;;;5044430;28;48240;-78
2024/01/18 02:59:20;;;;;;;;;16.33;15.00;;;;;;;;5044781;28;45951;-78
2024/01/18 03:01:45;;;;;;;;;21.00;19.00;;;;;;;;5062547;28;45321;-77
2024/01/18 03:04:10;;;;;;;;;19.25;18.00;;;;;;;;5062328;28;45355;-77
2024/01/18 03:06:35;;;;;;;;;16.75;15.00;;;;;;;;5062634;28;45969;-78
2024/01/18 03:09:00;;;;;;;;;13.33;13.33;;;;;;;;5044525;28;45249;-79
2024/01/18 03:11:26;;;;;;;;;14.33;11.33;;;;;;;;5062849;28;45396;-77
2024/01/18 03:13:51;;;;;;;;;12.67;12.00;;;;;;;;5062652;28;45378;-77
2024/01/18 03:16:16;;;;;;;;;12.00;12.00;;;;;;;;5044070;28;47637;-78
2024/01/18 03:18:43;;;;;;;;;14.00;14.00;;;;;;;;5044292;28;45383;-76
2024/01/18 03:21:08;;;;;;;;;13.25;12.75;;;;;;;;5044308;28;45347;-76
2024/01/18 03:23:34;;;;;;;;;12.00;10.67;;;;;;;;5044260;28;46453;-77
2024/01/18 03:25:59;;;;;;;;;12.00;12.00;;;;;;;;5062452;28;45323;-78
2024/01/18 03:28:24;;;;;;;;;12.00;10.00;;;;;;;;5062585;28;45340;-77
2024/01/18 03:30:50;;;;;;;;;12.00;11.33;;;;;;;;5062546;28;45205;-77
2024/01/18 03:33:15;;;;;;;;;8.00;7.33;;;;;;;;5044143;28;47367;-77
2024/01/18 03:35:42;;;;;;;;;11.00;11.00;;;;;;;;5062280;28;45423;-78
2024/01/18 03:38:07;;;;;;;;;9.33;9.33;;;;;;;;5044161;28;45866;-76
2024/01/18 03:40:32;;;;;;;;;12.33;11.33;;;;;;;;5074928;28;45254;-76
2024/01/18 03:42:57;;;;;;;;;14.33;12.00;;;;;;;;5064392;28;46305;-76
2024/01/18 03:45:23;;;;;;;;;13.33;10.67;;;;;;;;5082405;28;46331;-77
2024/01/18 03:47:48;;;;;;;;;8.00;8.00;;;;;;;;5064086;28;45256;-77
2024/01/18 03:50:13;;;;;;;;;10.67;10.67;;;;;;;;5064259;28;45533;-77
2024/01/18 03:52:38;;;;;;;;;12.33;10.67;;;;;;;;5082310;27;45486;-76
2024/01/18 03:55:05;;;;;;;;;9.67;8.33;;;;;;;;5082148;28;46313;-76
2024/01/18 03:57:30;;;;;;;;;9.67;9.67;;;;;;;;5054754;28;45803;-76
2024/01/18 03:59:55;;;;;;;;;13.33;11.67;;;;;;;;5062154;28;45363;-77
2024/01/18 04:02:20;;;;;;;;;11.00;9.00;;;;;;;;5061606;28;45545;-76
2024/01/18 04:04:45;;;;;;;;;12.00;11.67;;;;;;;;5061474;28;46208;-77
2024/01/18 04:07:11;;;;;;;;;12.00;10.25;;;;;;;;5061972;28;45354;-77
2024/01/18 04:09:36;;;;;;;;;13.33;13.33;;;;;;;;5062073;28;45359;-76
2024/01/18 04:12:01;;;;;;;;;11.33;10.00;;;;;;;;5043638;28;45733;-77
2024/01/18 04:14:27;;;;;;;;;12.33;10.00;;;;;;;;5061701;28;45598;-76
2024/01/18 04:16:52;;;;;;;;;12.33;12.33;;;;;;;;5061515;28;45406;-76
2024/01/18 04:19:17;;;;;;;;;13.50;13.25;;;;;;;;5061837;28;45534;-77
2024/01/18 04:21:43;;;;;;;;;10.67;10.00;;;;;;;;5043083;28;45588;-77
2024/01/18 04:24:09;;;;;;;;;16.00;15.00;;;;;;;;5061558;28;46058;-78
2024/01/18 04:26:35;;;;;;;;;10.33;10.33;;;;;;;;5043410;28;45344;-76
2024/01/18 04:29:00;;;;;;;;;10.33;9.33;;;;;;;;5061516;28;45363;-76
2024/01/18 04:31:25;;;;;;;;;12.67;12.00;;;;;;;;5061215;28;45416;-78
2024/01/18 04:33:51;;;;;;;;;11.75;10.50;;;;;;;;5061123;28;46205;-77
2024/01/18 04:36:16;;;;;;;;;11.00;10.00;;;;;;;;5043173;28;46220;-77
2024/01/18 04:38:41;;;;;;;;;13.67;12.00;;;;;;;;5061485;28;45274;-77
2024/01/18 04:41:06;;;;;;;;;13.67;11.00;;;;;;;;5061391;28;45219;-76
2024/01/18 04:43:32;;;;;;;;;6.00;6.00;;;;;;;;5061259;28;45395;-76
2024/01/18 04:45:57;;;;;;;;;9.00;6.67;;;;;;;;5042869;28;45287;-76
2024/01/18 04:48:22;;;;;;;;;12.67;8.33;;;;;;;;5061144;28;45262;-77
2024/01/18 04:50:47;;;;;;;;;8.00;7.00;;;;;;;;5043023;28;46188;-76
2024/01/18 04:53:14;;;;;;;;;10.25;10.00;;;;;;;;5060459;28;47204;-75
2024/01/18 04:55:39;;;;;;;;;12.25;10.75;;;;;;;;5041963;28;45813;-79
2024/01/18 04:58:04;;;;;;;;;7.67;7.00;;;;;;;;5060538;28;45288;-76
2024/01/18 05:00:31;;;;;;;;;7.75;6.00;;;;;;;;5060806;28;45379;-77
2024/01/18 05:02:56;;;;;;;;;15.00;13.25;;;;;;;;5042375;28;47309;-77
2024/01/18 05:05:21;;;;;;;;;10.00;10.00;;;;;;;;5042612;28;45343;-76
2024/01/18 05:07:46;;;;;;;;;11.50;11.25;;;;;;;;5061158;28;45460;-77
2024/01/18 05:10:11;;;;;;;;;11.75;10.75;;;;;;;;5060733;28;45454;-77
2024/01/18 05:12:37;;;;;;;;;13.25;11.75;;;;;;;;5060739;28;45379;-77
2024/01/18 05:15:03;;;;;;;;;14.50;14.00;;;;;;;;5067393;28;45450;-76
2024/01/18 05:17:34;;;;;;;;;18.00;16.00;;;;;;;;5080511;28;45378;-78
2024/01/18 05:20:01;;;;;;;;;16.00;14.00;;;;;;;;5080837;28;45469;-77
2024/01/18 05:22:26;;;;;;;;;14.25;12.00;;;;;;;;5080734;28;46055;-78
2024/01/18 05:24:51;;;;;;;;;13.00;10.33;;;;;;;;5062587;28;45347;-78
2024/01/18 05:27:17;;;;;;;;;11.00;11.00;;;;;;;;5062636;28;45297;-77
2024/01/18 05:29:43;;;;;;;;;16.75;12.00;;;;;;;;5080786;28;45315;-77
2024/01/18 05:32:08;;;;;;;;;13.50;13.50;;;;;;;;5062136;28;47439;-76
2024/01/18 05:34:33;;;;;;;;;12.50;11.50;;;;;;;;5080552;28;45629;-76
2024/01/18 05:36:58;;;;;;;;;18.50;14.50;;;;;;;;5062546;28;45402;-76
2024/01/18 05:39:25;;;;;;;;;19.50;16.75;;;;;;;;5080586;28;45329;-76
2024/01/18 05:41:50;;;;;;;;;13.50;11.75;;;;;;;;5080565;28;45359;-76
2024/01/18 05:44:15;;;;;;;;;18.75;15.50;;;;;;;;5062143;28;45370;-77
2024/01/18 05:46:41;;;;;;;;;15.00;15.00;;;;;;;;5060224;28;45235;-77
2024/01/18 05:49:06;;;;;;;;;19.00;16.00;;;;;;;;5059471;28;45552;-76
2024/01/18 05:51:32;;;;;;;;;11.75;11.75;;;;;;;;5057595;28;47046;-77
2024/01/18 05:53:57;;;;;;;;;16.00;13.75;;;;;;;;5079980;28;45332;-76
2024/01/18 05:56:22;;;;;;;;;21.00;18.75;;;;;;;;5080542;28;45439;-79
2024/01/18 05:58:48;;;;;;;;;18.50;15.50;;;;;;;;5060075;28;45471;-76
2024/01/18 06:01:13;;;;;;;;;19.75;18.00;;;;;;;;5041577;28;47934;-78
2024/01/18 06:03:38;;;;;;;;;21.00;17.50;;;;;;;;5059842;28;45435;-78
2024/01/18 06:06:04;;;;;;;;;11.25;10.50;;;;;;;;5059029;28;45381;-77
2024/01/18 06:08:29;;;;;;;;;18.25;15.00;;;;;;;;5058269;28;45475;-77
2024/01/18 06:10:54;;;;;;;;;22.75;19.25;;;;;;;;5058605;28;45654;-77
2024/01/18 06:13:20;;;;;;;;;17.75;14.75;;;;;;;;5059706;28;45261;-77
2024/01/18 06:15:45;;;;;;;;;20.75;17.50;;;;;;;;5041854;28;45377;-77
2024/01/18 06:18:10;;;;;;;;;23.75;22.50;;;;;;;;5041521;28;47060;-78
2024/01/18 06:20:35;;;;;;;;;18.00;15.75;;;;;;;;5041358;28;47302;-77
2024/01/18 06:23:01;;;;;;;;;23.75;21.75;;;;;;;;5041505;28;45353;-76
2024/01/18 06:25:27;;;;;;;;;24.50;22.75;;;;;;;;5059914;28;45296;-76
2024/01/18 06:27:52;;;;;;;;;23.75;23.00;;;;;;;;5059443;28;45249;-77
2024/01/18 06:30:18;;;;;;;;;17.25;16.25;;;;;;;;5041372;28;47221;-76
2024/01/18 06:32:43;;;;;;;;;18.50;17.50;;;;;;;;5041096;28;45301;-76
2024/01/18 06:35:09;;;;;;;;;20.00;18.75;;;;;;;;5059524;28;45355;-76
2024/01/18 06:37:35;;;;;;;;;15.75;15.75;;;;;;;;5059549;28;45198;-76
2024/01/18 06:40:00;;;;;;;;;22.50;20.25;;;;;;;;5059288;28;45265;-76
2024/01/18 06:42:25;;;;;;;;;21.25;18.75;;;;;;;;5059344;28;45174;-76
2024/01/18 06:44:51;;;;;;;;;23.75;21.25;;;;;;;;5041588;28;45434;-76
2024/01/18 06:47:16;;;;;;;;;19.00;19.00;;;;;;;;5041016;28;46037;-76
2024/01/18 06:49:41;;;;;;;;;25.25;24.75;;;;;;;;5041172;28;48439;-76
2024/01/18 06:52:06;;;;;;;;;21.75;20.25;;;;;;;;5059473;28;45383;-77
2024/01/18 06:54:31;;;;;;;;;28.75;24.25;;;;;;;;5041016;28;45526;-78
2024/01/18 06:56:57;;;;;;;;;25.75;22.75;;;;;;;;5059111;28;45326;-76
2024/01/18 06:59:22;;;;;;;;;22.50;20.50;;;;;;;;5040978;28;47700;-76
2024/01/18 07:01:47;;;;;;;;;24.75;21.50;;;;;;;;5040794;28;45358;-76
2024/01/18 07:04:13;;;;;;;;;22.75;22.25;;;;;;;;5041115;28;45368;-77
2024/01/18 07:06:38;;;;;;;;;28.50;26.50;;;;;;;;5058892;28;45362;-76
2024/01/18 07:09:06;;;;;;;;;13.00;11.00;;;;;;;;5059111;28;46205;-76
2024/01/18 07:11:31;;;;;;;;;23.00;20.50;;;;;;;;5058819;28;45379;-76
2024/01/18 07:13:56;;;;;;;;;30.75;29.00;;;;;;;;5058253;28;45343;-76
2024/01/18 07:16:21;;;;;;;;;51.50;44.50;;;;;;;;5058920;28;45449;-77
2024/01/18 07:18:47;;;;;;;;;31.50;29.50;;;;;;;;5040734;28;47436;-76
2024/01/18 07:21:12;;;;;;;;;36.50;33.00;;;;;;;;5058703;28;45372;-77
2024/01/18 07:23:37;;;;;;;;;37.00;36.00;;;;;;;;5059081;28;45340;-77
2024/01/18 07:26:02;;;;;;;;;35.75;30.50;;;;;;;;5068623;28;45296;-76
2024/01/18 07:28:28;;;;;;;;;28.25;24.75;;;;;;;;5063826;28;45390;-77
2024/01/18 07:30:53;;;;;;;;;26.00;25.25;;;;;;;;5048829;28;45373;-75
2024/01/18 07:33:18;;;;;;;;;36.00;35.75;;;;;;;;5068503;28;45283;-76
2024/01/18 07:35:43;;;;;;;;;32.75;28.25;;;;;;;;5060969;28;45525;-76
2024/01/18 07:38:08;;;;;;;;;33.00;30.00;;;;;;;;5039995;28;47154;-76
2024/01/18 07:40:33;;;;;;;;;34.75;29.75;;;;;;;;5061617;28;45264;-77
2024/01/18 07:42:59;;;;;;;;;44.25;37.00;;;;;;;;5062190;28;45307;-76
2024/01/18 07:45:24;;;;;;;;;36.75;31.75;;;;;;;;5061939;28;45236;-76
2024/01/18 07:47:49;;;;;;;;;40.00;36.00;;;;;;;;5043624;28;47994;-76
2024/01/18 07:50:15;;;;;;;;;37.75;36.00;;;;;;;;5061786;28;45223;-75
2024/01/18 07:52:40;;;;;;;;;41.00;38.50;;;;;;;;5062133;28;45159;-74
2024/01/18 07:55:07;;;;;;;;;39.25;32.25;;;;;;;;5081375;28;45222;-76
2024/01/18 07:57:32;;;;;;;;;42.00;37.75;;;;;;;;5072513;28;45875;-76
2024/01/18 07:59:57;;;;;;;;;30.75;30.75;;;;;;;;5043514;28;45202;-76
2024/01/18 08:02:22;;;;;;;;;35.75;34.50;;;;;;;;5060972;28;45427;-76
2024/01/18 08:04:47;;;;;;;;;38.00;33.50;;;;;;;;5043273;28;46341;-76
2024/01/18 08:07:12;;;;;;;;;43.50;40.50;;;;;;;;5060386;28;46072;-76
2024/01/18 08:09:38;;;;;;;;;40.75;39.25;;;;;;;;5061568;28;45176;-76
2024/01/18 08:12:04;;;;;;;;;44.75;38.00;;;;;;;;5061663;28;45324;-75
2024/01/18 08:14:30;;;;;;;;;51.25;41.25;;;;;;;;5061405;28;45462;-76
2024/01/18 08:16:55;;;;;;;;;52.75;41.00;;;;;;;;5061194;28;46244;-76
2024/01/18 08:19:20;;;;;;;;;43.25;38.25;;;;;;;;5062497;28;45385;-75
2024/01/18 08:21:45;;;;;;;;;48.75;42.25;;;;;;;;5081548;28;45280;-77
2024/01/18 08:24:11;;;;;;;;;42.50;38.50;;;;;;;;5063458;28;47444;-76
2024/01/18 08:26:36;;;;;;;;;47.50;40.50;;;;;;;;5081585;28;45349;-76
2024/01/18 08:29:01;;;;;;;;;41.00;39.25;;;;;;;;5063124;28;45524;-76
2024/01/18 08:31:27;;;;;;;;;45.00;41.00;;;;;;;;5081469;28;45321;-76
2024/01/18 08:33:53;;;;;;;;;41.00;36.25;;;;;;;;5081306;28;45326;-76
2024/01/18 08:36:18;;;;;;;;;56.75;46.00;;;;;;;;5081231;28;45446;-77
2024/01/18 08:38:43;;;;;;;;;50.25;42.00;;;;;;;;5066806;28;45353;-76
2024/01/18 08:41:10;;;;;;;;;42.25;36.25;;;;;;;;5042987;28;45372;-76
2024/01/18 08:43:35;;;;;;;;;48.00;41.75;;;;;;;;5061052;28;45285;-76
2024/01/18 08:46:01;;;;;;;;;55.75;44.50;;;;;;;;5060373;28;45490;-77
2024/01/18 08:48:26;;;;;;;;;43.75;38.50;;;;;;;;5060949;28;45233;-77
2024/01/18 08:50:51;;;;;;;;;51.75;41.75;;;;;;;;5041468;28;45174;-77
2024/01/18 08:53:16;;;;;;;;;43.50;36.50;;;;;;;;5059442;28;45546;-76
2024/01/18 08:55:42;;;;;;;;;44.75;37.50;;;;;;;;5060687;28;45221;-76
2024/01/18 08:58:07;;;;;;;;;36.75;34.75;;;;;;;;5042432;28;45925;-79
2024/01/18 09:00:32;;;;;;;;;50.00;42.25;;;;;;;;5060785;28;45464;-76
2024/01/18 09:02:58;;;;;;;;;43.50;40.50;;;;;;;;5060397;28;45213;-77
2024/01/18 09:05:23;;;;;;;;;53.75;42.75;;;;;;;;5042205;28;47388;-78
2024/01/18 09:07:48;;;;;;;;;51.50;44.00;;;;;;;;5042202;28;46020;-77
2024/01/18 09:10:13;;;;;;;;;47.50;39.75;;;;;;;;5060593;28;45197;-77
2024/01/18 09:12:39;;;;;;;;;43.00;39.50;;;;;;;;5060454;28;45420;-78
2024/01/18 09:15:04;;;;;;;;;45.25;42.00;;;;;;;;5060399;28;46006;-79
2024/01/18 09:17:30;;;;;;;;;51.25;45.00;;;;;;;;5060302;28;45292;-78
2024/01/18 09:19:55;;;;;;;;;47.75;42.25;;;;;;;;5042522;28;45410;-78
2024/01/18 09:22:20;;;;;;;;;53.50;44.00;;;;;;;;5041805;28;46351;-76
2024/01/18 09:24:45;;;;;;;;;51.50;44.50;;;;;;;;5060292;28;45886;-77
2024/01/18 09:27:11;;;;;;;;;56.00;43.00;;;;;;;;5062951;28;45323;-78
2024/01/18 09:29:36;;;;;;;;;54.50;46.00;;;;;;;;5065209;28;45448;-77
2024/01/18 09:32:06;;;;;;;;;45.50;41.25;;;;;;;;5049494;28;47223;-77
2024/01/18 09:34:31;;;;;;;;;52.75;45.00;;;;;;;;5059566;28;45306;-77
2024/01/18 09:36:57;;;;;;;;;62.75;50.75;;;;;;;;5034338;28;45406;-77
2024/01/18 09:39:22;;;;;;;;;48.00;40.50;;;;;;;;5049688;28;45378;-76
2024/01/18 09:41:51;;;;;;;;;55.00;46.00;;;;;;;;5059815;28;45406;-77
2024/01/18 09:44:22;;;;;;;;;56.00;47.00;;;;;;;;5041299;28;48374;-76
2024/01/18 09:46:48;;;;;;;;;58.50;49.00;;;;;;;;5050801;28;45884;-76
2024/01/18 09:49:13;;;;;;;;;59.50;49.25;;;;;;;;5044059;28;46352;-76
2024/01/18 09:51:38;;;;;;;;;54.00;44.50;;;;;;;;5064080;28;45553;-77
2024/01/18 09:54:03;;;;;;;;;57.75;45.50;;;;;;;;5058558;28;45730;-76
2024/01/18 09:56:29;;;;;;;;;57.25;46.75;;;;;;;;5058588;28;45236;-77
2024/01/18 09:58:55;;;;;;;;;54.50;44.50;;;;;;;;5032143;28;45345;-76
2024/01/18 10:01:20;;;;;;;;;54.25;42.25;;;;;;;;5058162;28;46167;-77
2024/01/18 10:03:46;;;;;;;;;55.25;45.75;;;;;;;;5058787;28;45620;-78
2024/01/18 10:06:11;;;;;;;;;52.50;42.50;;;;;;;;5040968;28;45785;-77
2024/01/18 10:08:38;;;;;;;;;56.25;45.75;;;;;;;;5039538;28;45391;-77
2024/01/18 10:11:03;;;;;;;;;57.25;47.00;;;;;;;;5060802;28;45300;-77
2024/01/18 10:13:28;;;;;;;;;51.00;43.25;;;;;;;;5061203;28;47210;-76
2024/01/18 10:15:53;;;;;;;;;59.75;48.75;;;;;;;;5060909;28;46245;-77
2024/01/18 10:18:18;;;;;;;;;66.75;53.75;;;;;;;;5049916;28;45497;-77
2024/01/18 10:20:46;;;;;;;;;61.25;49.00;;;;;;;;5050249;28;45982;-76
2024/01/18 10:23:12;;;;;;;;;63.25;50.25;;;;;;;;5069576;28;45323;-76
2024/01/18 10:25:39;;;;;;;;;67.75;54.25;;;;;;;;5063859;28;45257;-76
2024/01/18 10:28:04;;;;;;;;;57.50;48.75;;;;;;;;5047911;28;45426;-76
2024/01/18 10:30:31;;;;;;;;;58.50;48.75;;;;;;;;5075122;28;45495;-76
2024/01/18 10:33:00;;;;;;;;;63.75;52.25;;;;;;;;5077537;28;45387;-77
2024/01/18 10:35:25;;;;;;;;;53.25;45.75;;;;;;;;5060852;27;45525;-76
2024/01/18 10:38:04;;;;;;;;;63.25;53.25;;;;;;;;5078662;28;45331;-76
2024/01/18 10:40:30;;;;;;;;;66.50;52.25;;;;;;;;5060903;28;46147;-76
2024/01/18 10:42:56;;;;;;;;;63.25;51.25;;;;;;;;5060471;28;46128;-76
2024/01/18 10:45:21;;;;;;;;;62.75;50.00;;;;;;;;5040592;28;45375;-77
2024/01/18 10:47:46;;;;;;;;;57.75;48.00;;;;;;;;5057627;28;45347;-76
2024/01/18 10:50:12;;;;;;;;;59.50;49.50;;;;;;;;5040329;28;46423;-76
2024/01/18 10:52:37;;;;;;;;;57.25;48.00;;;;;;;;5040424;28;47984;-77
2024/01/18 10:55:06;;;;;;;;;58.25;49.50;;;;;;;;5040399;28;45280;-76
2024/01/18 10:57:31;;;;;;;;;63.25;51.25;;;;;;;;5058476;28;45204;-77
2024/01/18 10:59:57;;;;;;;;;58.25;47.75;;;;;;;;5040339;28;46907;-77
2024/01/18 11:02:22;;;;;;;;;62.50;49.00;;;;;;;;5057109;28;45289;-77
2024/01/18 11:04:50;;;;;;;;;61.25;49.50;;;;;;;;5040247;28;45349;-76
2024/01/18 11:07:15;;;;;;;;;58.00;49.25;;;;;;;;5058498;28;45478;-77
2024/01/18 11:09:41;;;;;;;;;60.75;48.75;;;;;;;;5061367;28;45340;-77
2024/01/18 11:12:07;;;;;;;;;61.25;50.00;;;;;;;;5072082;28;45602;-77
2024/01/18 11:14:33;;;;;;;;;59.50;50.00;;;;;;;;5058099;28;45495;-76
2024/01/18 11:16:59;;;;;;;;;62.25;49.50;;;;;;;;5061423;28;45614;-77
2024/01/18 11:19:38;;;;;;;;;63.75;52.25;;;;;;;;5061733;28;45309;-77
2024/01/18 11:22:03;;;;;;;;;54.75;47.25;;;;;;;;5043618;28;47602;-78
2024/01/18 11:24:29;;;;;;;;;57.25;45.75;;;;;;;;5061912;28;45304;-78
2024/01/18 11:26:57;;;;;;;;;62.50;50.75;;;;;;;;5044135;28;45512;-79
2024/01/18 11:29:25;;;;;;;;;54.00;44.50;;;;;;;;5062076;28;45620;-79
2024/01/18 11:31:51;;;;;;;;;64.00;53.00;;;;;;;;5043560;28;47325;-78
2024/01/18 11:34:34;;;;;;;;;64.75;52.50;;;;;;;;5062011;28;45209;-79
2024/01/18 11:37:10;;;;;;;;;60.75;50.25;;;;;;;;5062072;28;45379;-76
2024/01/18 11:39:47;;;;;;;;;61.75;49.00;;;;;;;;5061710;28;45572;-76
2024/01/18 11:42:22;;;;;;;;;57.75;48.50;;;;;;;;5042438;28;47312;-76
2024/01/18 11:44:56;;;;;;;;;64.75;53.50;;;;;;;;5060723;28;45266;-77
2024/01/18 11:47:22;;;;;;;;;62.25;51.50;;;;;;;;5062152;28;45391;-75
2024/01/18 11:49:48;;;;;;;;;59.25;50.25;;;;;;;;5063254;28;45477;-76
2024/01/18 11:52:15;;;;;;;;;63.00;51.75;;;;;;;;5061793;28;46102;-75
2024/01/18 11:54:42;;;;;;;;;67.00;53.75;;;;;;;;5061189;28;45450;-77
2024/01/18 11:57:12;;;;;;;;;73.25;58.75;;;;;;;;5055753;28;45386;-76
2024/01/18 11:59:39;;;;;;;;;67.00;55.00;;;;;;;;5041594;28;45295;-75
2024/01/18 12:02:05;;;;;;;;;59.00;47.75;;;;;;;;5041298;28;45366;-76
2024/01/18 12:04:30;;;;;;;;;60.75;49.25;;;;;;;;5041209;28;45261;-76
2024/01/18 12:06:55;;;;;;;;;57.00;48.50;;;;;;;;5041665;28;45410;-75
2024/01/18 12:09:21;;;;;;;;;59.00;49.50;;;;;;;;5041141;28;45464;-75
2024/01/18 12:11:46;;;;;;;;;62.00;52.00;;;;;;;;5038702;28;46282;-75
2024/01/18 12:14:12;;;;;;;;;61.25;49.00;;;;;;;;5057207;28;45348;-76
2024/01/18 12:16:38;;;;;;;;;56.00;47.25;;;;;;;;5057798;28;45463;-76
2024/01/18 12:19:05;;;;;;;;;59.75;49.25;;;;;;;;5029524;28;46169;-75
2024/01/18 12:21:30;;;;;;;;;57.75;48.50;;;;;;;;5057925;28;45411;-76
2024/01/18 12:23:56;;;;;;;;;53.25;44.75;;;;;;;;5032115;28;45554;-76
2024/01/18 12:26:21;;;;;;;;;54.25;43.25;;;;;;;;5058088;28;46320;-76
2024/01/18 12:28:47;;;;;;;;;58.50;46.25;;;;;;;;5048166;28;45521;-75
2024/01/18 12:31:12;;;;;;;;;59.00;48.50;;;;;;;;5059080;28;45225;-75
2024/01/18 12:33:37;;;;;;;;;49.25;40.50;;;;;;;;5059310;28;45352;-76
2024/01/18 12:36:03;;;;;;;;;51.75;43.25;;;;;;;;5042074;28;45269;-77
2024/01/18 12:38:28;;;;;;;;;61.00;49.75;;;;;;;;5058733;28;45351;-77
2024/01/18 12:40:54;;;;;;;;;54.25;44.75;;;;;;;;5035123;28;47949;-76
2024/01/18 12:43:19;;;;;;;;;60.25;46.75;;;;;;;;5055164;28;45431;-75
2024/01/18 12:45:51;;;;;;;;;62.00;48.00;;;;;;;;5059665;28;45346;-76
2024/01/18 12:48:17;;;;;;;;;58.00;47.50;;;;;;;;5056799;28;45565;-76
2024/01/18 12:50:42;;;;;;;;;56.25;46.50;;;;;;;;5044309;28;45237;-76
2024/01/18 12:53:07;;;;;;;;;48.75;43.50;;;;;;;;5059943;28;45497;-76
2024/01/18 12:55:33;;;;;;;;;59.50;48.25;;;;;;;;5057785;28;45304;-77
2024/01/18 12:57:58;;;;;;;;;43.25;39.00;;;;;;;;5059125;28;45341;-77
2024/01/18 13:00:24;;;;;;;;;53.50;44.75;;;;;;;;5060224;28;45284;-76
2024/01/18 13:02:52;;;;;;;;;42.00;38.50;;;;;;;;5059430;28;45263;-76
2024/01/18 13:05:17;;;;;;;;;55.75;47.00;;;;;;;;5060103;28;45365;-76
2024/01/18 13:07:42;;;;;;;;;47.00;41.00;;;;;;;;5059542;28;46574;-76
2024/01/18 13:10:10;;;;;;;;;43.75;38.25;;;;;;;;5060015;28;46663;-76
2024/01/18 13:12:36;;;;;;;;;42.00;37.25;;;;;;;;5028152;28;45959;-76
2024/01/18 13:15:01;;;;;;;;;44.25;40.25;;;;;;;;5046196;28;45442;-76
2024/01/18 13:17:26;;;;;;;;;48.75;39.50;;;;;;;;5057970;28;45418;-76
2024/01/18 13:19:53;;;;;;;;;43.25;35.75;;;;;;;;5041778;28;48180;-75
2024/01/18 13:22:18;;;;;;;;;51.00;43.75;;;;;;;;5059244;28;46102;-75
2024/01/18 13:24:43;;;;;;;;;44.00;40.00;;;;;;;;5058060;28;45554;-75
2024/01/18 13:27:09;;;;;;;;;46.00;39.50;;;;;;;;5057682;28;45202;-75
2024/01/18 13:29:34;;;;;;;;;37.75;34.25;;;;;;;;5058814;28;45881;-76
2024/01/18 13:32:00;;;;;;;;;47.00;39.00;;;;;;;;5056930;28;45370;-77
2024/01/18 13:34:25;;;;;;;;;43.75;39.25;;;;;;;;5055658;28;45489;-76
2024/01/18 13:36:50;;;;;;;;;36.00;34.00;;;;;;;;5058421;28;45415;-75
2024/01/18 13:39:20;;;;;;;;;38.75;33.50;;;;;;;;5041185;28;45864;-77
2024/01/18 13:41:45;;;;;;;;;38.75;35.25;;;;;;;;5058677;28;45440;-76
2024/01/18 13:44:10;;;;;;;;;39.25;35.50;;;;;;;;5059789;28;45370;-77
2024/01/18 13:46:38;;;;;;;;;47.75;38.75;;;;;;;;5058641;28;45378;-77
2024/01/18 13:49:04;;;;;;;;;47.75;38.25;;;;;;;;5041195;28;47541;-77
2024/01/18 13:51:32;;;;;;;;;38.50;36.00;;;;;;;;5059425;28;45316;-76
2024/01/18 13:53:57;;;;;;;;;21.25;19.25;;;;;;;;5053606;28;45717;-77
2024/01/18 13:56:23;;;;;;;;;42.50;37.00;;;;;;;;5045474;28;45549;-76
2024/01/18 13:58:49;;;;;;;;;38.00;34.50;;;;;;;;5053750;28;45851;-75
2024/01/18 14:01:14;;;;;;;;;41.25;37.00;;;;;;;;5041032;28;45444;-76
2024/01/18 14:03:44;;;;;;;;;47.75;38.25;;;;;;;;5055067;28;45393;-75
2024/01/18 14:06:09;;;;;;;;;44.25;36.00;;;;;;;;5059303;28;45438;-77
2024/01/18 14:08:34;;;;;;;;;39.00;34.33;;;;;;;;5058922;28;46330;-76
2024/01/18 14:10:59;;;;;;;;;42.00;34.50;;;;;;;;5059503;28;45210;-77